createdAt,value
2017-12-06T00:01:06.248Z,7.30
2017-12-06T00:03:33.887Z,7.30
2017-12-06T00:06:01.471Z,7.30
2017-12-06T00:08:29.059Z,7.30
2017-12-06T00:10:56.858Z,7.30
2017-12-06T00:13:30.035Z,7.30
2017-12-06T00:15:57.675Z,7.30
2017-12-06T00:18:25.256Z,7.30
2017-12-06T00:20:52.866Z,7.30
2017-12-06T00:23:21.270Z,7.30
2017-12-06T00:25:48.856Z,7.30
2017-12-06T00:28:17.220Z,7.40
2017-12-06T00:30:45.008Z,7.40
2017-12-06T00:33:13.356Z,7.40
2017-12-06T00:35:40.941Z,7.40
2017-12-06T00:38:08.856Z,7.40
2017-12-06T00:40:37.220Z,7.40
2017-12-06T00:43:04.804Z,7.40
2017-12-06T00:45:32.435Z,7.40
2017-12-06T00:48:00.024Z,7.40
2017-12-06T00:50:27.623Z,7.40
2017-12-06T00:52:55.256Z,7.40
2017-12-06T00:55:22.832Z,7.30
2017-12-06T00:57:50.411Z,7.40
2017-12-06T01:00:18.220Z,7.40
2017-12-06T01:02:45.807Z,7.40
2017-12-06T01:05:14.155Z,7.40
2017-12-06T01:07:41.955Z,7.30
2017-12-06T01:10:09.539Z,7.30
2017-12-06T01:12:38.280Z,7.30
2017-12-06T01:15:06.106Z,7.30
2017-12-06T01:17:35.200Z,7.30
2017-12-06T01:20:02.776Z,7.30
2017-12-06T01:22:30.555Z,7.40
2017-12-06T01:24:58.140Z,7.40
2017-12-06T01:27:26.483Z,7.40
2017-12-06T01:29:54.227Z,7.40
2017-12-06T01:32:21.809Z,7.40
2017-12-06T01:34:49.400Z,7.40
2017-12-06T01:37:17.024Z,7.30
2017-12-06T01:39:45.367Z,7.30
2017-12-06T01:42:12.951Z,7.30
2017-12-06T01:44:40.586Z,7.30
2017-12-06T01:47:08.173Z,7.30
2017-12-06T01:49:35.759Z,7.30
2017-12-06T01:52:03.392Z,7.30
2017-12-06T01:54:30.971Z,7.30
2017-12-06T01:56:58.561Z,7.40
2017-12-06T01:59:26.288Z,7.40
2017-12-06T02:01:54.719Z,7.30
2017-12-06T02:04:22.299Z,7.30
2017-12-06T02:06:49.955Z,7.40
2017-12-06T02:09:17.537Z,7.30
2017-12-06T02:11:45.116Z,7.30
2017-12-06T02:14:12.751Z,7.40
2017-12-06T02:16:41.096Z,7.40
2017-12-06T02:19:08.675Z,7.40
2017-12-06T02:21:36.479Z,7.30
2017-12-06T02:24:04.844Z,7.40
2017-12-06T02:26:32.431Z,7.30
2017-12-06T02:29:00.363Z,7.30
2017-12-06T02:31:27.937Z,7.30
2017-12-06T02:33:55.521Z,7.30
2017-12-06T02:36:23.174Z,7.30
2017-12-06T02:38:50.760Z,7.40
2017-12-06T02:41:30.279Z,7.40
2017-12-06T02:44:10.664Z,7.40
2017-12-06T02:46:38.404Z,7.30
2017-12-06T02:49:05.983Z,7.30
2017-12-06T02:51:34.335Z,7.30
2017-12-06T02:54:01.964Z,7.30
2017-12-06T02:56:29.553Z,7.30
2017-12-06T02:58:57.135Z,7.30
2017-12-06T03:01:24.768Z,7.30
2017-12-06T03:03:53.119Z,7.40
2017-12-06T03:06:20.699Z,7.40
2017-12-06T03:08:48.344Z,7.40
2017-12-06T03:11:15.963Z,7.40
2017-12-06T03:13:43.548Z,7.40
2017-12-06T03:16:12.129Z,7.30
2017-12-06T03:18:39.715Z,7.40
2017-12-06T03:21:07.307Z,7.30
2017-12-06T03:23:35.040Z,7.30
2017-12-06T03:26:02.674Z,7.30
2017-12-06T03:28:30.240Z,7.40
2017-12-06T03:30:57.866Z,7.40
2017-12-06T03:33:25.456Z,7.30
2017-12-06T03:35:53.808Z,7.40
2017-12-06T03:38:21.440Z,7.40
2017-12-06T03:40:49.023Z,7.40
2017-12-06T03:43:16.660Z,7.40
2017-12-06T03:45:45.235Z,7.40
2017-12-06T03:48:12.826Z,7.40
2017-12-06T03:50:41.171Z,7.40
2017-12-06T03:53:08.803Z,7.30
2017-12-06T03:55:36.375Z,7.30
2017-12-06T03:58:03.959Z,7.30
2017-12-06T04:00:31.592Z,7.40
2017-12-06T04:02:59.192Z,7.30
2017-12-06T04:05:26.777Z,7.30
2017-12-06T04:07:54.408Z,7.30
2017-12-06T04:10:22.755Z,7.40
2017-12-06T04:12:50.408Z,7.40
2017-12-06T04:15:18.049Z,7.40
2017-12-06T04:17:46.399Z,7.30
2017-12-06T04:20:13.979Z,7.30
2017-12-06T04:22:41.771Z,7.30
2017-12-06T04:25:09.348Z,7.30
2017-12-06T04:27:37.715Z,7.40
2017-12-06T04:30:05.358Z,7.40
2017-12-06T04:32:32.956Z,7.40
2017-12-06T04:35:00.544Z,7.40
2017-12-06T04:37:31.085Z,7.40
2017-12-06T04:40:00.339Z,7.30
2017-12-06T04:42:36.342Z,7.40
2017-12-06T04:45:11.360Z,7.40
2017-12-06T04:47:45.290Z,7.40
2017-12-06T04:50:23.893Z,7.40
2017-12-06T04:53:01.596Z,7.40
2017-12-06T04:55:35.190Z,7.40
2017-12-06T04:58:03.359Z,7.40
2017-12-06T05:00:30.948Z,7.40
2017-12-06T05:02:58.532Z,7.40
2017-12-06T05:05:27.031Z,7.40
2017-12-06T05:07:55.372Z,7.40
2017-12-06T05:10:22.947Z,7.40
2017-12-06T05:12:50.751Z,7.40
2017-12-06T05:15:18.332Z,7.40
2017-12-06T05:17:45.912Z,7.40
2017-12-06T05:20:14.510Z,7.40
2017-12-06T05:22:42.858Z,7.40
2017-12-06T05:25:10.433Z,7.40
2017-12-06T05:27:38.062Z,7.40
2017-12-06T05:30:05.671Z,7.40
2017-12-06T05:32:33.315Z,7.50
2017-12-06T05:35:00.943Z,7.40
2017-12-06T05:37:28.524Z,7.40
2017-12-06T05:39:56.099Z,7.40
2017-12-06T05:42:24.493Z,7.40
2017-12-06T05:44:52.831Z,7.40
2017-12-06T05:47:20.410Z,7.40
2017-12-06T05:49:49.310Z,7.40
2017-12-06T05:52:17.803Z,7.50
2017-12-06T05:54:45.398Z,7.50
2017-12-06T05:57:13.023Z,7.40
2017-12-06T05:59:40.602Z,7.40
2017-12-06T06:02:08.178Z,7.40
2017-12-06T06:04:35.964Z,7.40
2017-12-06T06:07:03.549Z,7.40
2017-12-06T06:09:31.123Z,7.40
2017-12-06T06:11:58.764Z,7.40
2017-12-06T06:14:26.364Z,7.40
2017-12-06T06:16:53.939Z,7.40
2017-12-06T06:19:21.739Z,7.40
2017-12-06T06:21:49.319Z,7.40
2017-12-06T06:24:17.664Z,7.40
2017-12-06T06:26:45.320Z,7.40
2017-12-06T06:29:12.915Z,7.40
2017-12-06T06:31:40.580Z,7.40
2017-12-06T06:34:14.304Z,7.40
2017-12-06T06:36:42.324Z,7.30
2017-12-06T06:39:10.664Z,7.70
2017-12-06T06:41:38.292Z,7.70
2017-12-06T06:44:06.640Z,8.20
2017-12-06T06:46:34.224Z,8.20
2017-12-06T06:49:02.020Z,8.40
2017-12-06T06:51:29.624Z,8.40
2017-12-06T06:53:57.204Z,8.20
2017-12-06T06:56:24.835Z,8.10
2017-12-06T06:58:52.427Z,7.90
2017-12-06T07:01:20.771Z,7.70
2017-12-06T07:03:48.413Z,7.70
2017-12-06T07:06:15.992Z,7.70
2017-12-06T07:08:43.575Z,7.60
2017-12-06T07:11:20.587Z,7.60
2017-12-06T07:13:48.772Z,7.60
2017-12-06T07:16:16.563Z,7.50
2017-12-06T07:18:44.570Z,7.50
2017-12-06T07:21:12.911Z,7.50
2017-12-06T07:23:40.552Z,7.50
2017-12-06T07:26:08.131Z,7.50
2017-12-06T07:28:35.796Z,7.50
2017-12-06T07:31:03.626Z,7.50
2017-12-06T07:33:31.208Z,7.50
2017-12-06T07:35:59.556Z,7.50
2017-12-06T07:38:27.372Z,7.50
2017-12-06T07:40:54.950Z,7.50
2017-12-06T07:43:23.291Z,7.50
2017-12-06T07:45:50.919Z,7.50
2017-12-06T07:48:19.277Z,7.50
2017-12-06T07:50:46.868Z,7.50
2017-12-06T07:53:14.493Z,7.50
2017-12-06T07:55:42.080Z,7.50
2017-12-06T07:58:09.664Z,7.60
2017-12-06T08:00:37.451Z,7.50
2017-12-06T08:03:05.040Z,7.50
2017-12-06T08:05:33.389Z,7.50
2017-12-06T08:08:01.037Z,7.50
2017-12-06T08:10:28.615Z,7.50
2017-12-06T08:12:56.200Z,7.60
2017-12-06T08:15:23.824Z,7.60
2017-12-06T08:17:52.168Z,7.60
2017-12-06T08:20:19.748Z,7.60
2017-12-06T08:22:47.406Z,7.60
2017-12-06T08:25:14.992Z,7.70
2017-12-06T08:27:42.591Z,7.70
2017-12-06T08:30:10.346Z,7.70
2017-12-06T08:32:37.935Z,7.70
2017-12-06T08:35:06.288Z,7.70
2017-12-06T08:37:33.914Z,7.70
2017-12-06T08:40:02.261Z,7.70
2017-12-06T08:42:29.842Z,7.70
2017-12-06T08:44:57.494Z,7.70
2017-12-06T08:47:25.876Z,7.70
2017-12-06T08:49:53.468Z,7.70
2017-12-06T08:52:21.267Z,7.70
2017-12-06T08:54:48.904Z,7.70
2017-12-06T08:57:16.902Z,7.70
2017-12-06T08:59:44.703Z,7.70
2017-12-06T09:02:12.284Z,7.80
2017-12-06T09:04:40.627Z,7.80
2017-12-06T09:07:08.268Z,7.80
2017-12-06T09:09:35.848Z,7.80
2017-12-06T09:12:03.429Z,7.80
2017-12-06T09:14:31.068Z,7.80
2017-12-06T09:16:59.457Z,7.90
2017-12-06T09:19:27.795Z,7.90
2017-12-06T09:21:55.422Z,7.90
2017-12-06T09:24:23.760Z,8.00
2017-12-06T09:26:51.339Z,8.00
2017-12-06T09:29:18.963Z,8.00
2017-12-06T09:31:46.540Z,8.00
2017-12-06T09:34:14.121Z,8.00
2017-12-06T09:36:41.752Z,8.00
2017-12-06T09:39:09.352Z,8.10
2017-12-06T09:41:36.938Z,8.10
2017-12-06T09:44:04.576Z,8.10
2017-12-06T09:46:32.927Z,8.10
2017-12-06T09:51:29.552Z,8.10
2017-12-06T09:53:57.894Z,8.10
2017-12-06T09:56:25.476Z,8.10
2017-12-06T09:58:53.221Z,8.20
2017-12-06T10:01:20.800Z,8.10
2017-12-06T10:03:48.546Z,8.10
2017-12-06T10:06:16.305Z,8.20
2017-12-06T10:08:44.648Z,8.20
2017-12-06T10:11:13.444Z,8.20
2017-12-06T10:13:41.382Z,8.20
2017-12-06T10:16:09.725Z,8.20
2017-12-06T10:18:41.606Z,8.20
2017-12-06T10:21:09.363Z,8.30
2017-12-06T10:23:37.050Z,8.30
2017-12-06T10:26:04.675Z,8.30
2017-12-06T10:28:33.025Z,8.40
2017-12-06T10:31:04.084Z,8.40
2017-12-06T10:33:32.268Z,8.40
2017-12-06T10:35:59.848Z,8.40
2017-12-06T10:38:28.315Z,8.40
2017-12-06T10:40:55.940Z,8.40
2017-12-06T10:43:24.283Z,8.40
2017-12-06T10:45:51.865Z,8.40
2017-12-06T10:48:19.496Z,8.40
2017-12-06T10:50:47.071Z,8.50
2017-12-06T10:53:14.656Z,8.50
2017-12-06T10:55:42.291Z,8.60
2017-12-06T10:58:09.896Z,8.60
2017-12-06T11:00:38.401Z,8.60
2017-12-06T11:03:06.056Z,8.60
2017-12-06T11:05:33.637Z,8.60
2017-12-06T11:08:01.207Z,8.60
2017-12-06T11:10:29.020Z,8.60
2017-12-06T11:12:57.372Z,8.50
2017-12-06T11:15:24.948Z,8.50
2017-12-06T11:17:52.788Z,8.50
2017-12-06T11:20:21.132Z,8.50
2017-12-06T11:22:49.451Z,8.50
2017-12-06T11:25:17.575Z,8.50
2017-12-06T11:27:45.157Z,8.50
2017-12-06T11:30:12.744Z,8.50
2017-12-06T11:32:44.048Z,8.50
2017-12-06T11:35:12.394Z,8.40
2017-12-06T11:37:39.984Z,8.40
2017-12-06T11:40:07.768Z,8.40
2017-12-06T11:42:35.339Z,8.40
2017-12-06T11:45:04.164Z,8.40
2017-12-06T11:47:32.219Z,8.50
2017-12-06T11:49:59.838Z,8.50
2017-12-06T11:52:27.476Z,8.50
2017-12-06T11:54:56.059Z,8.50
2017-12-06T11:57:25.140Z,8.50
2017-12-06T11:59:52.730Z,8.50
2017-12-06T12:02:20.421Z,8.50
2017-12-06T12:05:12.320Z,8.50
2017-12-06T12:07:39.948Z,8.60
2017-12-06T12:10:08.300Z,8.60
2017-12-06T12:12:35.874Z,8.60
2017-12-06T12:15:03.668Z,8.50
2017-12-06T12:17:31.248Z,8.50
2017-12-06T12:19:59.592Z,8.60
2017-12-06T12:22:28.205Z,8.60
2017-12-06T12:24:55.805Z,8.60
2017-12-06T12:27:24.150Z,8.60
2017-12-06T12:29:51.932Z,8.60
2017-12-06T12:32:19.516Z,8.60
2017-12-06T12:34:47.088Z,8.50
2017-12-06T12:37:14.892Z,8.50
2017-12-06T12:39:43.282Z,8.60
2017-12-06T12:42:10.835Z,8.60
2017-12-06T12:44:38.614Z,8.60
2017-12-06T12:47:06.198Z,8.60
2017-12-06T12:49:34.837Z,8.50
2017-12-06T12:52:02.504Z,8.50
2017-12-06T12:54:30.081Z,8.50
2017-12-06T12:56:57.661Z,8.50
2017-12-06T12:59:25.328Z,8.50
2017-12-06T13:01:52.943Z,8.50
2017-12-06T13:04:20.544Z,8.50
2017-12-06T13:06:48.948Z,8.40
2017-12-06T13:09:16.536Z,8.40
2017-12-06T13:11:44.238Z,8.40
2017-12-06T13:14:11.864Z,8.40
2017-12-06T13:16:39.448Z,8.40
2017-12-06T13:19:07.024Z,8.40
2017-12-06T13:21:34.856Z,8.40
2017-12-06T13:24:03.258Z,8.40
2017-12-06T13:26:31.607Z,8.40
2017-12-06T13:28:59.245Z,8.40
2017-12-06T13:31:26.824Z,8.40
2017-12-06T13:33:54.412Z,8.40
2017-12-06T13:36:22.167Z,8.40
2017-12-06T13:38:49.740Z,8.40
2017-12-06T13:41:17.321Z,8.40
2017-12-06T13:43:44.956Z,8.40
2017-12-06T13:46:13.339Z,8.40
2017-12-06T13:48:40.920Z,8.40
2017-12-06T13:51:09.319Z,8.40
2017-12-06T13:53:37.664Z,8.40
2017-12-06T13:56:06.351Z,8.40
2017-12-06T13:58:33.973Z,8.40
2017-12-06T14:01:02.316Z,8.40
2017-12-06T14:03:29.893Z,8.40
2017-12-06T14:05:57.689Z,8.40
2017-12-06T14:08:25.621Z,8.40
2017-12-06T14:10:53.315Z,8.40
2017-12-06T14:13:20.941Z,8.40
2017-12-06T14:15:49.285Z,8.40
2017-12-06T14:18:17.034Z,8.40
2017-12-06T14:20:44.873Z,8.30
2017-12-06T14:23:12.689Z,8.30
2017-12-06T14:25:40.277Z,8.30
2017-12-06T14:28:07.915Z,8.40
2017-12-06T14:30:35.491Z,8.30
2017-12-06T14:33:03.100Z,8.30
2017-12-06T14:35:30.728Z,8.30
2017-12-06T14:37:58.304Z,8.30
2017-12-06T14:40:25.879Z,8.30
2017-12-06T14:42:53.496Z,8.30
2017-12-06T14:45:21.815Z,8.30
2017-12-06T14:47:50.159Z,8.30
2017-12-06T14:50:18.125Z,8.30
2017-12-06T14:52:45.700Z,8.30
2017-12-06T14:55:13.296Z,8.30
2017-12-06T14:57:40.923Z,8.30
2017-12-06T15:00:08.499Z,8.40
2017-12-06T15:02:39.104Z,8.70
2017-12-06T15:05:08.307Z,9.20
2017-12-06T15:07:35.883Z,9.20
2017-12-06T15:10:03.465Z,9.50
2017-12-06T15:12:37.730Z,9.90
2017-12-06T15:14:59.576Z,9.90
2017-12-06T15:17:27.160Z,10.00
2017-12-06T15:19:54.932Z,9.70
2017-12-06T15:22:22.500Z,9.50
2017-12-06T15:24:50.083Z,9.40
2017-12-06T15:27:17.704Z,9.20
2017-12-06T15:29:46.066Z,8.80
2017-12-06T15:32:14.407Z,8.70
2017-12-06T15:34:42.227Z,8.70
2017-12-06T15:37:09.840Z,8.70
2017-12-06T15:39:37.420Z,8.60
2017-12-06T15:42:05.053Z,8.60
2017-12-06T15:44:32.667Z,8.50
2017-12-06T15:47:00.252Z,8.50
2017-12-06T15:49:27.876Z,8.40
2017-12-06T15:51:55.459Z,8.40
2017-12-06T15:54:23.800Z,8.40
2017-12-06T15:56:52.378Z,8.40
2017-12-06T15:59:19.964Z,8.30
2017-12-06T16:01:47.600Z,8.40
2017-12-06T16:04:16.186Z,8.30
2017-12-06T16:06:45.395Z,8.30
2017-12-06T16:09:13.025Z,8.30
2017-12-06T16:11:40.837Z,8.30
2017-12-06T16:14:09.190Z,8.20
2017-12-06T16:16:38.174Z,8.20
2017-12-06T16:19:05.808Z,8.30
2017-12-06T16:21:34.148Z,8.20
2017-12-06T16:24:10.593Z,8.20
2017-12-06T16:26:39.063Z,8.30
2017-12-06T16:29:07.556Z,8.20
2017-12-06T16:31:39.151Z,8.30
2017-12-06T16:34:07.054Z,8.20
2017-12-06T16:36:47.458Z,8.30
2017-12-06T16:39:16.767Z,8.30
2017-12-06T16:41:44.787Z,8.30
2017-12-06T16:44:12.964Z,8.30
2017-12-06T16:46:42.549Z,8.30
2017-12-06T16:49:10.287Z,8.30
2017-12-06T16:51:37.880Z,8.30
2017-12-06T16:54:05.697Z,8.30
2017-12-06T16:56:33.277Z,8.30
2017-12-06T16:59:01.615Z,8.30
2017-12-06T17:01:29.237Z,8.30
2017-12-06T17:03:56.816Z,8.30
2017-12-06T17:06:25.164Z,8.30
2017-12-06T17:08:52.791Z,8.30
2017-12-06T17:11:20.376Z,8.30
2017-12-06T17:13:48.560Z,8.30
2017-12-06T17:16:16.192Z,8.20
2017-12-06T17:18:43.767Z,8.30
2017-12-06T17:21:11.347Z,8.20
2017-12-06T17:23:39.757Z,8.20
2017-12-06T17:26:07.335Z,8.30
2017-12-06T17:28:46.979Z,8.30
2017-12-06T17:31:26.616Z,8.30
2017-12-06T17:33:54.488Z,8.30
2017-12-06T17:36:22.067Z,8.30
2017-12-06T17:38:50.420Z,8.30
2017-12-06T17:41:18.223Z,8.30
2017-12-06T17:43:45.802Z,8.30
2017-12-06T17:46:17.943Z,8.30
2017-12-06T17:48:47.181Z,8.40
2017-12-06T17:51:20.468Z,8.30
2017-12-06T17:53:48.711Z,8.40
2017-12-06T17:56:16.307Z,8.40
2017-12-06T17:58:44.548Z,8.40
2017-12-06T18:01:13.594Z,8.50
2017-12-06T18:03:41.175Z,8.40
2017-12-06T18:06:08.850Z,8.40
2017-12-06T18:08:36.627Z,8.40
2017-12-06T18:11:04.287Z,8.40
2017-12-06T18:13:39.442Z,8.40
2017-12-06T18:16:17.346Z,8.40
2017-12-06T18:18:53.523Z,8.50
2017-12-06T18:21:31.498Z,8.50
2017-12-06T18:24:10.411Z,8.50
2017-12-06T18:26:45.667Z,8.50
2017-12-06T18:29:22.485Z,8.40
2017-12-06T18:31:52.463Z,8.40
2017-12-06T18:34:21.792Z,8.40
2017-12-06T18:36:51.226Z,8.40
2017-12-06T18:42:46.277Z,8.30
2017-12-06T18:45:23.897Z,8.30
2017-12-06T18:47:58.220Z,8.30
2017-12-06T18:50:35.110Z,8.20
2017-12-06T18:53:11.220Z,8.30
2017-12-06T18:55:39.463Z,8.20
2017-12-06T18:58:15.111Z,8.20
2017-12-06T19:00:52.567Z,8.20
2017-12-06T19:03:27.746Z,8.20
2017-12-06T19:06:02.851Z,8.20
2017-12-06T19:08:36.933Z,8.20
2017-12-06T19:11:12.962Z,8.20
2017-12-06T19:13:48.332Z,8.20
2017-12-06T19:16:21.292Z,8.20
2017-12-06T19:18:49.631Z,8.20
2017-12-06T19:21:17.208Z,8.20
2017-12-06T19:23:52.967Z,8.30
2017-12-06T19:26:20.851Z,8.30
2017-12-06T19:28:49.749Z,8.30
2017-12-06T19:31:21.022Z,8.30
2017-12-06T19:33:49.796Z,8.30
2017-12-06T19:36:20.509Z,8.30
2017-12-06T19:38:51.356Z,8.30
2017-12-06T19:41:21.703Z,8.30
2017-12-06T19:43:52.948Z,8.30
2017-12-06T19:46:24.872Z,8.40
2017-12-06T19:48:54.065Z,8.30
2017-12-06T19:51:26.795Z,8.40
2017-12-06T19:53:56.458Z,8.40
2017-12-06T19:56:29.941Z,8.40
2017-12-06T19:59:05.626Z,8.40
2017-12-06T20:01:34.251Z,8.40
2017-12-06T20:04:03.857Z,8.40
2017-12-06T20:06:32.031Z,8.40
2017-12-06T20:08:59.864Z,8.40
2017-12-06T20:11:28.804Z,8.40
2017-12-06T20:14:02.458Z,8.40
2017-12-06T20:16:31.031Z,8.40
2017-12-06T20:18:59.273Z,8.60
2017-12-06T20:21:28.032Z,9.00
2017-12-06T20:23:57.429Z,9.00
2017-12-06T20:26:28.453Z,9.10
2017-12-06T20:28:58.598Z,8.90
2017-12-06T20:31:27.791Z,8.80
2017-12-06T20:33:55.370Z,8.80
2017-12-06T20:36:26.206Z,8.70
2017-12-06T20:38:57.444Z,8.60
2017-12-06T20:41:28.802Z,8.60
2017-12-06T20:43:59.767Z,8.60
2017-12-06T20:46:29.611Z,8.60
2017-12-06T20:49:00.310Z,8.50
2017-12-06T20:51:29.820Z,8.50
2017-12-06T20:53:57.774Z,8.50
2017-12-06T20:56:25.346Z,8.50
2017-12-06T20:58:53.191Z,8.50
2017-12-06T21:01:20.947Z,8.50
2017-12-06T21:03:51.769Z,8.50
2017-12-06T21:06:19.902Z,8.50
2017-12-06T21:08:47.491Z,8.50
2017-12-06T21:11:15.832Z,8.40
2017-12-06T21:13:43.455Z,8.40
2017-12-06T21:16:11.044Z,8.40
2017-12-06T21:18:38.631Z,8.40
2017-12-06T21:21:06.460Z,8.40
2017-12-06T21:23:34.828Z,8.40
2017-12-06T21:26:02.415Z,8.30
2017-12-06T21:28:30.044Z,8.40
2017-12-06T21:30:57.627Z,8.40
2017-12-06T21:33:25.476Z,8.40
2017-12-06T21:35:53.108Z,8.30
2017-12-06T21:38:20.689Z,8.40
2017-12-06T21:40:49.041Z,8.40
2017-12-06T21:43:16.680Z,8.40
2017-12-06T21:45:44.264Z,8.40
2017-12-06T21:48:11.847Z,8.40
2017-12-06T21:50:39.479Z,8.40
2017-12-06T21:53:07.837Z,8.40
2017-12-06T21:55:35.429Z,8.40
2017-12-06T21:58:03.235Z,8.40
2017-12-06T22:00:30.816Z,8.40
2017-12-06T22:02:58.400Z,8.40
2017-12-06T22:05:26.141Z,8.30
2017-12-06T22:07:54.491Z,8.30
2017-12-06T22:10:22.075Z,8.20
2017-12-06T22:12:51.224Z,8.20
2017-12-06T22:15:18.808Z,8.20
2017-12-06T22:17:46.388Z,8.10
2017-12-06T22:20:14.215Z,8.10
2017-12-06T22:22:41.800Z,8.10
2017-12-06T22:25:10.147Z,8.00
2017-12-06T22:27:37.787Z,8.00
2017-12-06T22:30:05.380Z,8.10
2017-12-06T22:32:33.583Z,8.10
2017-12-06T22:35:01.319Z,8.10
2017-12-06T22:37:28.904Z,8.00
2017-12-06T22:39:56.486Z,8.10
2017-12-06T22:42:24.219Z,8.00
2017-12-06T22:45:04.337Z,8.00
2017-12-06T22:47:32.152Z,7.90
2017-12-06T22:50:00.504Z,8.00
2017-12-06T22:52:28.087Z,8.00
2017-12-06T22:54:56.484Z,8.00
2017-12-06T22:57:24.063Z,8.00
2017-12-06T22:59:52.414Z,8.00
2017-12-06T23:02:20.147Z,8.00
2017-12-06T23:04:48.496Z,8.00
2017-12-06T23:07:16.079Z,8.00
2017-12-06T23:09:45.408Z,7.90
2017-12-06T23:12:13.777Z,8.00
2017-12-06T23:14:41.364Z,7.90
2017-12-06T23:17:09.099Z,8.00
2017-12-06T23:19:36.679Z,8.00
2017-12-06T23:22:04.268Z,8.00
2017-12-06T23:24:31.904Z,8.00
2017-12-06T23:26:59.491Z,8.00
2017-12-06T23:29:27.071Z,8.00
2017-12-06T23:31:54.695Z,8.00
2017-12-06T23:34:23.047Z,8.00
2017-12-06T23:36:51.404Z,8.00
2017-12-06T23:39:19.037Z,8.00
2017-12-06T23:41:47.390Z,7.90
2017-12-06T23:44:14.972Z,7.90
2017-12-06T23:46:42.603Z,8.00
2017-12-06T23:49:10.196Z,8.00
2017-12-06T23:51:37.788Z,8.00
2017-12-06T23:54:06.344Z,8.10
2017-12-06T23:56:33.927Z,8.10
2017-12-06T23:59:01.509Z,8.10
